Time;durP1;ratioP1;P1;durP2;ratioP2;P2;SDS_P1;SDS_P2;PMS_P1;PMS_P2;Temp;Humidity;BMP_temperature;BMP_pressure;BME280_temperature;BME280_humidity;BME280_pressure;Samples;Min_cycle;Max_cycle;Signal;HPM_P1;HPM_P2
2021/11/23 00:01:23;;;;;;;7.20;2.10;;;22.10;99.90;;;;;;5099653;28;20028;-70
2021/11/23 00:03:50;;;;;;;7.95;1.80;;;22.10;99.90;;;;;;5096108;28;20466;-70
2021/11/23 00:06:18;;;;;;;5.63;1.60;;;22.20;99.90;;;;;;4744049;28;10000472;-69
2021/11/23 00:08:46;;;;;;;7.90;2.15;;;22.40;99.90;;;;;;5092324;28;20032;-70
2021/11/23 00:11:13;;;;;;;7.40;2.10;;;22.70;99.90;;;;;;5092217;28;20016;-70
2021/11/23 00:13:40;;;;;;;8.13;2.17;;;22.80;99.90;;;;;;5092196;28;20039;-69
2021/11/23 00:16:07;;;;;;;5.15;2.45;;;22.90;99.90;;;;;;5092395;28;20055;-68
2021/11/23 00:18:35;;;;;;;7.20;2.45;;;23.00;99.90;;;;;;5091715;28;20016;-70
2021/11/23 00:21:02;;;;;;;7.15;1.80;;;23.00;99.90;;;;;;5092419;28;20024;-68
2021/11/23 00:23:29;;;;;;;4.32;1.25;;;23.00;99.90;;;;;;5091663;28;20849;-70
2021/11/23 00:25:57;;;;;;;8.35;2.08;;;22.90;99.90;;;;;;5091891;28;20174;-69
2021/11/23 00:28:24;;;;;;;4.95;1.58;;;23.10;99.90;;;;;;5091248;28;20471;-68
2021/11/23 00:30:51;;;;;;;5.82;1.55;;;23.30;99.90;;;;;;5091946;28;20035;-70
2021/11/23 00:33:18;;;;;;;7.53;1.80;;;23.40;99.90;;;;;;5091845;28;20074;-69
2021/11/23 00:35:45;;;;;;;6.97;2.10;;;23.10;99.90;;;;;;5091573;28;20047;-68
2021/11/23 00:38:13;;;;;;;4.93;1.88;;;22.90;99.90;;;;;;5091906;28;20057;-68
2021/11/23 00:40:40;;;;;;;8.10;2.25;;;22.60;99.90;;;;;;5092582;28;20514;-69
2021/11/23 00:43:08;;;;;;;6.82;2.70;;;22.30;99.90;;;;;;5099381;28;20027;-67
2021/11/23 00:45:37;;;;;;;7.70;2.63;;;21.90;99.90;;;;;;5106039;28;20024;-66
2021/11/23 00:48:05;;;;;;;7.40;2.10;;;21.50;99.90;;;;;;5093003;28;20042;-68
2021/11/23 00:50:34;;;;;;;7.43;2.47;;;21.20;99.90;;;;;;5091698;28;20066;-68
2021/11/23 00:53:05;;;;;;;8.07;4.10;;;20.90;99.90;;;;;;5097605;28;20023;-68
2021/11/23 00:55:33;;;;;;;4.57;1.10;;;21.20;99.90;;;;;;5090188;28;20488;-69
2021/11/23 00:58:00;;;;;;;5.53;2.00;;;21.70;99.90;;;;;;5088579;28;20028;-69
2021/11/23 01:00:28;;;;;;;3.65;1.40;;;22.10;99.90;;;;;;5091317;28;20039;-69
2021/11/23 01:02:55;;;;;;;7.97;2.00;;;22.70;99.90;;;;;;5096004;28;20016;-68
2021/11/23 01:05:22;;;;;;;4.95;1.40;;;23.30;99.90;;;;;;5097631;28;20452;-68
2021/11/23 01:07:49;;;;;;;3.03;0.98;;;23.40;99.90;;;;;;5101373;28;20035;-69
2021/11/23 01:10:16;;;;;;;5.95;1.38;;;23.20;99.90;;;;;;5099489;28;20043;-70
2021/11/23 01:12:44;;;;;;;6.20;1.15;;;22.90;99.90;;;;;;5094266;28;20020;-69
2021/11/23 01:15:11;;;;;;;2.08;1.02;;;23.10;99.90;;;;;;5103468;28;20106;-69
2021/11/23 01:17:39;;;;;;;3.05;1.67;;;23.30;99.90;;;;;;5088626;28;20392;-69
2021/11/23 01:20:09;;;;;;;2.72;1.75;;;23.90;99.90;;;;;;5088931;28;20073;-69
2021/11/23 01:22:37;;;;;;;2.10;0.70;;;24.80;99.90;;;;;;5088606;28;20024;-70
2021/11/23 01:25:05;;;;;;;2.63;0.93;;;25.50;99.90;;;;;;5088993;28;20044;-70
2021/11/23 01:27:33;;;;;;;2.72;1.25;;;25.80;99.90;;;;;;5087897;28;20044;-69
2021/11/23 01:30:00;;;;;;;3.67;1.08;;;26.20;99.90;;;;;;5090761;28;21552;-70
2021/11/23 01:32:30;;;;;;;2.03;0.88;;;26.50;99.90;;;;;;5097053;28;20051;-68
2021/11/23 01:34:58;;;;;;;2.25;0.80;;;26.00;99.90;;;;;;5099713;28;20019;-68
2021/11/23 01:37:25;;;;;;;2.70;0.93;;;26.20;99.90;;;;;;5090164;28;20498;-69
2021/11/23 01:39:53;;;;;;;1.70;0.88;;;26.10;99.90;;;;;;5088424;28;20027;-69
2021/11/23 01:42:20;;;;;;;6.28;4.88;;;25.80;99.90;;;;;;5088742;28;20743;-70
2021/11/23 01:44:48;;;;;;;2.08;1.08;;;25.70;99.90;;;;;;5095670;28;20024;-68
2021/11/23 01:47:15;;;;;;;5.95;1.45;;;25.60;99.90;;;;;;5096569;28;20016;-69
2021/11/23 01:49:42;;;;;;;1.55;0.90;;;25.40;99.90;;;;;;5088261;28;20050;-69
2021/11/23 01:52:09;;;;;;;2.85;0.90;;;25.40;99.90;;;;;;5088174;28;20520;-68
2021/11/23 01:54:37;;;;;;;3.95;1.00;;;25.70;99.90;;;;;;5089219;28;20425;-67
2021/11/23 01:57:04;;;;;;;2.45;1.00;;;25.70;99.90;;;;;;5089573;28;20035;-67
2021/11/23 01:59:31;;;;;;;2.10;1.30;;;25.70;99.90;;;;;;5096651;28;20123;-67
2021/11/23 02:02:00;;;;;;;2.95;0.98;;;25.30;99.90;;;;;;5096693;28;20063;-68
2021/11/23 02:04:27;;;;;;;4.22;1.38;;;24.70;99.90;;;;;;5072349;28;20050;-68
2021/11/23 02:06:54;;;;;;;2.13;0.85;;;24.70;99.90;;;;;;5089202;28;20565;-67
2021/11/23 02:09:21;;;;;;;3.70;1.00;;;24.90;99.90;;;;;;5087844;28;20020;-67
2021/11/23 02:11:50;;;;;;;2.38;1.17;;;25.30;99.90;;;;;;5086823;28;20051;-66
2021/11/23 02:14:19;;;;;;;4.82;1.25;;;25.70;99.90;;;;;;5090204;28;20078;-68
2021/11/23 02:16:46;;;;;;;1.35;0.50;;;25.90;99.90;;;;;;5089325;28;20042;-67
2021/11/23 02:19:14;;;;;;;3.42;1.05;;;25.80;99.90;;;;;;5069989;28;20020;-67
2021/11/23 02:21:41;;;;;;;4.65;1.70;;;25.80;99.90;;;;;;5086147;28;20028;-68
2021/11/23 02:24:08;;;;;;;2.00;0.80;;;25.70;99.90;;;;;;5092276;28;20026;-67
2021/11/23 02:26:36;;;;;;;3.55;1.00;;;25.60;99.90;;;;;;5088662;28;20044;-67
2021/11/23 02:29:04;;;;;;;3.22;1.00;;;25.20;99.90;;;;;;5086566;28;20036;-67
2021/11/23 02:31:31;;;;;;;1.80;0.80;;;24.80;99.90;;;;;;5086151;28;20020;-68
2021/11/23 02:33:59;;;;;;;4.22;1.13;;;24.20;99.90;;;;;;5086830;28;20020;-67
2021/11/23 02:36:26;;;;;;;5.45;2.42;;;23.90;99.90;;;;;;5087610;28;20020;-69
2021/11/23 02:38:54;;;;;;;3.83;1.38;;;23.50;99.90;;;;;;5087536;28;20070;-68
2021/11/23 02:41:22;;;;;;;3.75;1.42;;;23.20;99.90;;;;;;5087285;28;20020;-67
2021/11/23 02:43:49;;;;;;;3.53;1.48;;;23.10;99.90;;;;;;5086756;28;20024;-68
2021/11/23 02:46:16;;;;;;;4.38;1.88;;;22.90;99.90;;;;;;5089461;28;20717;-68
2021/11/23 02:48:44;;;;;;;3.00;1.23;;;22.90;99.90;;;;;;5091943;28;20115;-67
2021/11/23 02:53:38;;;;;;;3.88;1.33;;;22.90;99.90;;;;;;5091586;28;20016;-67
2021/11/23 02:56:05;;;;;;;5.43;1.42;;;22.80;99.90;;;;;;5091769;28;20122;-69
2021/11/23 02:58:34;;;;;;;4.38;1.63;;;22.70;99.90;;;;;;5095469;28;20076;-68
2021/11/23 03:01:05;;;;;;;8.50;4.07;;;22.60;99.90;;;;;;5105786;28;20028;-67
2021/11/23 03:03:33;;;;;;;3.95;1.38;;;22.70;99.90;;;;;;5092367;28;20077;-68
2021/11/23 03:06:01;;;;;;;8.50;7.32;;;22.90;99.90;;;;;;5092432;28;20028;-68
2021/11/23 03:08:28;;;;;;;3.67;1.50;;;23.30;99.90;;;;;;5091164;28;20096;-67
2021/11/23 03:10:55;;;;;;;4.75;1.23;;;23.90;99.90;;;;;;5091551;28;20092;-67
2021/11/23 03:13:23;;;;;;;6.38;1.17;;;24.60;99.90;;;;;;5072926;28;20111;-67
2021/11/23 03:15:50;;;;;;;2.78;1.10;;;25.60;99.90;;;;;;5091237;28;20051;-68
2021/11/23 03:18:17;;;;;;;4.07;1.50;;;26.40;99.90;;;;;;5091211;28;20161;-68
2021/11/23 03:20:45;;;;;;;3.35;1.20;;;26.90;99.90;;;;;;5095180;28;20024;-67
2021/11/23 03:23:13;;;;;;;2.83;1.20;;;26.60;99.90;;;;;;5094457;28;20032;-67
2021/11/23 03:25:40;;;;;;;2.22;1.00;;;26.30;99.90;;;;;;5090965;28;20399;-67
2021/11/23 03:28:08;;;;;;;6.03;1.55;;;26.10;99.90;;;;;;5090446;28;20044;-67
2021/11/23 03:30:36;;;;;;;2.13;1.00;;;25.90;99.90;;;;;;5090690;28;20445;-67
2021/11/23 03:33:06;;;;;;;5.00;1.58;;;25.50;99.90;;;;;;5091076;28;20024;-67
2021/11/23 03:35:37;;;;;;;5.25;1.70;;;25.20;99.90;;;;;;5091239;28;20035;-68
2021/11/23 03:38:06;;;;;;;7.50;1.33;;;24.50;99.90;;;;;;5090799;28;20497;-66
2021/11/23 03:40:37;;;;;;;5.50;1.55;;;23.90;99.90;;;;;;5090672;28;20032;-67
2021/11/23 03:43:05;;;;;;;7.25;1.58;;;23.50;99.90;;;;;;5090441;28;20027;-67
2021/11/23 03:45:33;;;;;;;2.08;1.48;;;23.60;99.90;;;;;;5090917;28;20020;-68
2021/11/23 03:48:01;;;;;;;3.13;1.30;;;23.40;99.90;;;;;;5090598;28;20066;-67
2021/11/23 03:50:28;;;;;;;5.38;1.40;;;23.30;99.90;;;;;;5090452;28;20023;-67
2021/11/23 03:52:57;;;;;;;4.07;1.65;;;23.00;99.90;;;;;;5090338;28;20038;-68
2021/11/23 03:55:26;;;;;;;3.40;1.00;;;22.80;99.90;;;;;;5090224;28;20026;-68
2021/11/23 03:57:53;;;;;;;4.78;1.10;;;22.80;99.90;;;;;;5070926;28;20032;-68
2021/11/23 04:00:22;;;;;;;8.95;2.13;;;22.90;99.90;;;;;;5096871;28;20097;-67
2021/11/23 04:02:51;;;;;;;5.05;1.40;;;22.80;99.90;;;;;;5072350;28;20390;-67
2021/11/23 04:05:18;;;;;;;5.57;2.13;;;22.90;99.90;;;;;;5088758;28;20039;-68
2021/11/23 04:07:45;;;;;;;5.50;1.40;;;23.10;99.90;;;;;;5092138;28;20101;-68
2021/11/23 04:10:18;;;;;;;2.45;1.02;;;23.30;99.90;;;;;;5101393;28;20019;-68
2021/11/23 04:12:46;;;;;;;2.15;0.90;;;23.60;99.90;;;;;;5102571;28;20032;-68
2021/11/23 04:15:15;;;;;;;3.38;0.90;;;23.80;99.90;;;;;;5097756;28;20347;-68
2021/11/23 04:17:42;;;;;;;3.50;1.25;;;24.20;99.90;;;;;;5091078;28;20046;-68
2021/11/23 04:20:11;;;;;;;2.55;1.00;;;24.30;99.90;;;;;;5100924;28;20079;-70
2021/11/23 04:22:39;;;;;;;3.08;1.30;;;24.20;99.90;;;;;;5090159;28;20020;-70
2021/11/23 04:25:08;;;;;;;3.72;1.13;;;24.50;99.90;;;;;;5094492;28;20027;-71
2021/11/23 04:27:36;;;;;;;2.95;1.00;;;24.80;99.90;;;;;;5089358;28;20387;-72
2021/11/23 04:30:04;;;;;;;3.47;1.27;;;25.00;99.90;;;;;;5097739;28;20176;-71
2021/11/23 04:32:32;;;;;;;3.20;0.90;;;25.00;99.90;;;;;;5100438;28;20019;-73
2021/11/23 04:34:59;;;;;;;3.72;0.93;;;25.20;99.90;;;;;;5098756;28;20023;-70
2021/11/23 04:37:26;;;;;;;2.67;1.20;;;25.30;99.90;;;;;;5090391;28;20449;-67
2021/11/23 04:39:54;;;;;;;2.50;1.15;;;25.30;99.90;;;;;;5093687;28;20114;-67
2021/11/23 04:42:22;;;;;;;3.25;1.08;;;25.20;99.90;;;;;;5085747;28;20035;-70
2021/11/23 04:44:49;;;;;;;2.90;1.20;;;25.10;99.90;;;;;;5090764;28;20028;-70
2021/11/23 04:47:16;;;;;;;3.90;1.00;;;25.10;99.90;;;;;;5091881;28;20031;-71
2021/11/23 04:49:44;;;;;;;3.42;1.70;;;25.10;99.90;;;;;;5100907;28;20520;-68
2021/11/23 04:52:11;;;;;;;4.05;1.10;;;24.90;99.90;;;;;;5095398;28;20072;-68
2021/11/23 04:54:39;;;;;;;5.43;1.15;;;24.80;99.90;;;;;;5093654;28;20561;-70
2021/11/23 04:57:06;;;;;;;5.00;1.40;;;24.60;99.90;;;;;;5089551;28;20023;-68
2021/11/23 04:59:34;;;;;;;4.18;1.15;;;24.40;99.90;;;;;;5096030;28;20015;-69
2021/11/23 05:02:01;;;;;;;5.05;1.30;;;24.00;99.90;;;;;;5105371;28;20031;-70
2021/11/23 05:04:29;;;;;;;4.82;1.55;;;23.60;99.90;;;;;;5100799;28;20029;-72
2021/11/23 05:06:56;;;;;;;4.03;1.73;;;23.30;99.90;;;;;;5096179;28;20051;-71
2021/11/23 05:09:23;;;;;;;4.70;1.33;;;23.00;99.90;;;;;;5076382;28;20031;-71
2021/11/23 05:11:50;;;;;;;5.50;1.88;;;22.80;99.90;;;;;;5095619;28;20026;-69
2021/11/23 05:14:18;;;;;;;5.85;1.73;;;22.60;99.90;;;;;;5095790;28;20019;-74
2021/11/23 05:16:45;;;;;;;3.72;1.60;;;22.40;99.90;;;;;;5095336;28;20035;-70
2021/11/23 05:19:13;;;;;;;3.92;1.50;;;22.40;99.90;;;;;;5098316;28;20091;-71
2021/11/23 05:21:40;;;;;;;3.70;1.40;;;22.50;99.90;;;;;;5100199;28;20038;-68
2021/11/23 05:24:11;;;;;;;7.45;1.70;;;22.50;99.90;;;;;;5100657;28;20034;-73
2021/11/23 05:26:38;;;;;;;4.82;2.30;;;22.40;99.90;;;;;;5100528;28;20365;-70
2021/11/23 05:29:06;;;;;;;6.07;2.03;;;22.50;99.90;;;;;;5096393;28;20847;-70
2021/11/23 05:31:34;;;;;;;6.70;1.88;;;22.40;99.90;;;;;;5097250;28;20130;-70
2021/11/23 05:34:01;;;;;;;5.30;1.88;;;22.20;99.90;;;;;;5101306;28;20027;-71
2021/11/23 05:36:29;;;;;;;6.65;1.70;;;22.00;99.90;;;;;;5101917;28;20019;-68
2021/11/23 05:38:56;;;;;;;6.47;1.48;;;21.80;99.90;;;;;;5098782;28;20085;-73
2021/11/23 05:41:23;;;;;;;5.18;1.52;;;21.70;99.90;;;;;;5097156;28;20111;-69
2021/11/23 05:43:51;;;;;;;7.45;1.25;;;21.60;99.90;;;;;;5070819;28;20030;-68
2021/11/23 05:46:18;;;;;;;3.22;1.30;;;21.50;99.90;;;;;;5098620;28;20736;-71
2021/11/23 05:48:46;;;;;;;7.30;1.23;;;21.50;99.90;;;;;;5099065;28;20057;-68
2021/11/23 05:51:13;;;;;;;6.25;1.55;;;21.40;99.90;;;;;;5099401;28;20815;-72
2021/11/23 05:53:40;;;;;;;5.03;1.40;;;21.40;99.90;;;;;;5098916;28;20036;-67
2021/11/23 05:56:08;;;;;;;3.65;1.30;;;21.40;99.90;;;;;;5098703;28;20019;-67
2021/11/23 05:58:39;;;;;;;4.53;1.38;;;21.50;99.90;;;;;;5103398;28;20019;-70
2021/11/23 06:01:07;;;;;;;5.85;1.85;;;21.40;99.90;;;;;;5096201;28;20059;-69
2021/11/23 06:03:34;;;;;;;4.40;1.25;;;21.50;99.90;;;;;;5078136;28;20120;-67
2021/11/23 06:06:02;;;;;;;6.35;1.85;;;21.40;99.90;;;;;;5094770;28;20039;-68
2021/11/23 06:08:30;;;;;;;5.15;1.45;;;21.50;99.90;;;;;;5101608;28;20032;-70
2021/11/23 06:10:57;;;;;;;8.90;2.22;;;21.60;99.90;;;;;;5099613;28;20024;-69
2021/11/23 06:13:24;;;;;;;7.88;1.58;;;21.60;99.90;;;;;;5098775;28;20035;-67
2021/11/23 06:15:51;;;;;;;5.80;1.50;;;21.70;99.90;;;;;;5098980;28;20836;-69
2021/11/23 06:18:18;;;;;;;3.50;1.45;;;21.80;99.90;;;;;;5096048;28;20030;-66
2021/11/23 06:20:48;;;;;;;4.38;1.02;;;21.80;99.90;;;;;;5097809;28;20028;-71
2021/11/23 06:23:18;;;;;;;5.32;1.55;;;21.70;99.90;;;;;;5081567;28;20065;-70
2021/11/23 06:25:52;;;;;;;6.38;1.42;;;21.70;99.90;;;;;;5095947;28;20028;-71
2021/11/23 06:28:21;;;;;;;5.00;1.83;;;21.60;99.90;;;;;;5100404;28;20051;-71
2021/11/23 06:30:49;;;;;;;4.07;1.88;;;21.70;99.90;;;;;;5100382;28;20043;-70
2021/11/23 06:33:16;;;;;;;7.32;1.88;;;21.70;99.90;;;;;;5099869;28;20033;-67
2021/11/23 06:35:44;;;;;;;4.32;1.83;;;21.80;99.90;;;;;;5093610;28;20416;-71
2021/11/23 06:38:11;;;;;;;6.82;1.88;;;21.80;99.90;;;;;;5095432;28;20024;-70
2021/11/23 06:40:39;;;;;;;4.00;2.00;;;21.80;99.90;;;;;;5095989;28;20038;-72
2021/11/23 06:43:08;;;;;;;3.75;1.90;;;21.70;99.90;;;;;;5097690;28;20028;-67
2021/11/23 06:45:36;;;;;;;5.18;2.20;;;21.70;99.90;;;;;;5095950;28;20031;-72
2021/11/23 06:48:04;;;;;;;5.20;2.22;;;21.70;99.90;;;;;;5099530;28;20035;-68
2021/11/23 06:50:32;;;;;;;5.43;1.75;;;21.70;99.90;;;;;;5097527;28;20024;-66
2021/11/23 06:53:02;;;;;;;3.42;1.80;;;21.80;99.90;;;;;;5099048;28;20030;-70
2021/11/23 06:55:30;;;;;;;6.07;1.60;;;21.70;99.90;;;;;;5092292;28;20028;-67
2021/11/23 06:57:57;;;;;;;5.57;2.03;;;21.60;99.90;;;;;;5090543;28;20054;-74
2021/11/23 07:00:25;;;;;;;6.32;2.45;;;21.60;99.90;;;;;;5074455;28;20035;-64
2021/11/23 07:02:52;;;;;;;5.95;2.15;;;21.60;99.90;;;;;;5095062;28;20031;-70
2021/11/23 07:05:19;;;;;;;4.55;1.98;;;21.60;99.90;;;;;;5091756;28;20150;-68
2021/11/23 07:07:46;;;;;;;5.85;2.22;;;21.60;99.90;;;;;;5098971;28;20115;-66
2021/11/23 07:10:14;;;;;;;6.10;2.30;;;21.60;99.90;;;;;;5090812;28;20048;-66
2021/11/23 07:12:43;;;;;;;6.30;2.13;;;21.70;99.90;;;;;;5090460;28;20015;-70
2021/11/23 07:15:11;;;;;;;7.00;2.40;;;21.70;99.90;;;;;;5092135;28;20035;-69
2021/11/23 07:17:38;;;;;;;4.35;2.00;;;21.80;99.90;;;;;;5096741;28;20027;-69
2021/11/23 07:20:07;;;;;;;7.68;3.00;;;21.90;99.90;;;;;;5091968;28;20020;-69
2021/11/23 07:22:35;;;;;;;2.83;1.95;;;22.00;99.90;;;;;;5098068;28;20051;-70
2021/11/23 07:25:02;;;;;;;3.92;1.52;;;22.10;99.90;;;;;;5098217;28;20076;-66
2021/11/23 07:27:29;;;;;;;4.70;1.70;;;22.00;99.90;;;;;;5095741;28;20126;-69
2021/11/23 07:29:56;;;;;;;3.95;1.60;;;22.00;99.90;;;;;;5094132;28;20109;-66
2021/11/23 07:32:30;;;;;;;6.15;1.65;;;22.00;99.90;;;;;;5095623;28;20072;-67
2021/11/23 07:34:57;;;;;;;9.32;1.83;;;22.00;99.90;;;;;;5075226;28;20047;-68
2021/11/23 07:37:27;;;;;;;8.10;1.80;;;21.90;99.90;;;;;;5089895;28;20012;-68
2021/11/23 07:39:54;;;;;;;4.45;1.77;;;21.80;99.90;;;;;;5097239;28;20051;-68
2021/11/23 07:42:22;;;;;;;6.00;1.75;;;21.70;99.90;;;;;;5097430;28;20035;-66
2021/11/23 07:44:49;;;;;;;8.20;4.03;;;21.60;99.90;;;;;;5098517;28;20123;-67
2021/11/23 07:47:16;;;;;;;14.82;10.65;;;21.60;99.90;;;;;;5094694;28;20028;-68
2021/11/23 07:49:43;;;;;;;7.32;3.63;;;21.60;99.90;;;;;;5104709;28;20047;-67
2021/11/23 07:52:14;;;;;;;6.32;2.60;;;21.40;99.90;;;;;;5098084;28;20024;-67
2021/11/23 07:54:41;;;;;;;9.82;4.70;;;21.30;99.90;;;;;;5095839;28;20082;-68
2021/11/23 07:57:08;;;;;;;9.98;8.43;;;21.20;99.90;;;;;;5096764;28;20031;-68
2021/11/23 07:59:36;;;;;;;6.75;2.78;;;21.20;99.90;;;;;;5097102;28;20141;-68
2021/11/23 08:02:03;;;;;;;3.38;1.85;;;21.20;99.90;;;;;;5097033;28;20023;-69
2021/11/23 08:04:30;;;;;;;6.03;1.75;;;21.10;99.90;;;;;;5094717;28;20753;-66
2021/11/23 08:06:57;;;;;;;4.60;1.92;;;21.10;99.90;;;;;;5102508;28;20019;-68
2021/11/23 08:09:24;;;;;;;4.18;1.50;;;21.10;99.90;;;;;;5102990;28;20577;-67
2021/11/23 08:11:52;;;;;;;9.35;2.75;;;21.10;99.90;;;;;;5104985;28;20504;-68
2021/11/23 08:14:22;;;;;;;3.67;1.58;;;21.00;99.90;;;;;;5097488;28;20020;-66
2021/11/23 08:16:50;;;;;;;8.02;2.38;;;20.90;99.90;;;;;;5093565;28;20028;-67
2021/11/23 08:19:17;;;;;;;5.78;2.22;;;20.80;99.90;;;;;;5101081;28;20023;-67
2021/11/23 08:21:44;;;;;;;8.82;2.38;;;20.80;99.90;;;;;;5100483;28;20405;-68
2021/11/23 08:24:11;;;;;;;4.88;2.17;;;20.70;99.90;;;;;;5096457;28;20028;-69
2021/11/23 08:26:39;;;;;;;6.90;1.92;;;20.60;99.90;;;;;;5098643;28;20497;-67
2021/11/23 08:29:06;;;;;;;5.38;2.47;;;20.60;99.90;;;;;;5096043;28;20057;-71
2021/11/23 08:31:35;;;;;;;5.43;2.15;;;20.50;99.90;;;;;;5092657;28;20023;-70
2021/11/23 08:34:05;;;;;;;6.07;2.88;;;20.40;99.90;;;;;;5092801;28;20027;-69
2021/11/23 08:36:34;;;;;;;6.97;2.15;;;20.40;99.90;;;;;;5090341;28;20530;-68
2021/11/23 08:39:03;;;;;;;5.72;2.13;;;20.40;99.90;;;;;;5088010;28;20101;-68
2021/11/23 08:41:30;;;;;;;5.95;2.00;;;20.30;99.90;;;;;;5094401;28;20034;-69
2021/11/23 08:43:57;;;;;;;5.18;1.90;;;20.20;99.90;;;;;;5094674;28;20464;-71
2021/11/23 08:46:25;;;;;;;9.02;3.53;;;20.10;99.90;;;;;;5091701;28;20016;-69
2021/11/23 08:48:52;;;;;;;8.43;2.40;;;20.00;99.90;;;;;;5081336;28;20039;-68
2021/11/23 08:51:22;;;;;;;7.50;3.45;;;20.00;99.90;;;;;;5101288;28;20024;-67
2021/11/23 08:53:49;;;;;;;6.30;2.58;;;20.00;99.90;;;;;;5093623;28;20028;-68
2021/11/23 08:56:16;;;;;;;9.98;2.47;;;19.90;99.90;;;;;;5086936;28;20138;-69
2021/11/23 08:58:47;;;;;;;5.60;2.33;;;19.80;99.90;;;;;;5099214;28;20050;-70
2021/11/23 09:01:14;;;;;;;8.02;2.10;;;19.80;99.90;;;;;;5095299;28;20076;-69
2021/11/23 09:03:41;;;;;;;5.82;2.03;;;19.70;99.90;;;;;;5086767;28;20024;-67
2021/11/23 09:06:08;;;;;;;8.60;1.95;;;19.70;99.90;;;;;;5089165;28;20035;-71
2021/11/23 09:08:46;;;;;;;7.95;2.33;;;19.70;99.90;;;;;;5092946;28;20052;-70
2021/11/23 09:11:13;;;;;;;8.77;2.45;;;19.70;99.90;;;;;;5089387;28;20099;-68
2021/11/23 09:13:40;;;;;;;9.38;2.33;;;19.70;99.90;;;;;;5088248;28;20060;-67
2021/11/23 09:16:07;;;;;;;8.38;2.08;;;19.70;99.90;;;;;;5090236;28;20096;-71
2021/11/23 09:18:34;;;;;;;6.38;2.50;;;19.70;99.90;;;;;;5094899;28;20048;-67
2021/11/23 09:21:01;;;;;;;8.10;2.13;;;19.70;99.90;;;;;;5089736;28;20030;-69
2021/11/23 09:23:29;;;;;;;6.72;1.65;;;19.70;99.90;;;;;;5098619;28;20928;-69
2021/11/23 09:25:56;;;;;;;6.95;2.15;;;19.70;99.90;;;;;;5089538;28;20039;-69
2021/11/23 09:28:23;;;;;;;4.57;1.95;;;19.60;99.90;;;;;;5092142;28;20467;-67
2021/11/23 09:30:50;;;;;;;6.50;1.77;;;19.60;99.90;;;;;;5100250;28;20020;-67
2021/11/23 09:33:18;;;;;;;9.02;2.70;;;19.60;99.90;;;;;;5093567;28;20020;-67
2021/11/23 09:35:45;;;;;;;7.13;2.03;;;19.50;99.90;;;;;;5093581;28;20027;-69
2021/11/23 09:38:12;;;;;;;6.55;2.22;;;19.60;99.90;;;;;;5091953;28;20060;-69
2021/11/23 09:40:41;;;;;;;6.90;1.70;;;19.50;99.90;;;;;;5092077;28;20051;-68
2021/11/23 09:43:08;;;;;;;5.97;1.90;;;19.50;99.90;;;;;;5089050;28;20454;-70
2021/11/23 09:45:35;;;;;;;5.38;3.17;;;19.50;99.90;;;;;;5102297;28;20132;-71
2021/11/23 09:48:10;;;;;;;9.05;3.10;;;19.50;99.90;;;;;;5086799;28;20024;-70
2021/11/23 09:50:39;;;;;;;5.65;2.70;;;19.50;99.90;;;;;;5092702;28;20047;-70
2021/11/23 09:53:08;;;;;;;4.88;2.08;;;19.50;99.90;;;;;;5094100;28;20019;-69
2021/11/23 09:55:37;;;;;;;5.60;2.15;;;19.50;99.90;;;;;;5087149;28;20032;-72
2021/11/23 09:58:04;;;;;;;6.22;1.80;;;19.50;99.90;;;;;;5090167;28;20563;-69
2021/11/23 10:00:36;;;;;;;6.75;1.67;;;19.50;99.90;;;;;;5096941;28;20028;-73
2021/11/23 10:03:27;;;;;;;4.30;1.90;;;19.70;99.90;;;;;;5075405;28;20470;-72
2021/11/23 10:06:08;;;;;;;10.23;2.28;;;19.70;99.90;;;;;;5093025;28;20027;-70
2021/11/23 10:08:37;;;;;;;3.70;1.63;;;19.60;99.90;;;;;;5100760;28;20023;-66
2021/11/23 10:11:06;;;;;;;10.90;2.15;;;19.80;99.90;;;;;;5101770;28;20098;-68
2021/11/23 10:13:49;;;;;;;6.95;1.80;;;19.80;99.90;;;;;;5097136;28;20024;-67
2021/11/23 10:16:18;;;;;;;7.28;1.98;;;19.80;99.90;;;;;;5088019;28;20026;-71
2021/11/23 10:18:49;;;;;;;7.00;1.75;;;19.70;99.90;;;;;;5094325;28;20032;-67
2021/11/23 10:21:19;;;;;;;5.00;1.60;;;19.80;99.90;;;;;;5087691;28;20024;-71
2021/11/23 10:23:55;;;;;;;5.60;1.50;;;19.80;99.90;;;;;;5087479;28;20056;-72
2021/11/23 10:26:29;;;;;;;6.00;1.48;;;19.70;99.90;;;;;;5093719;22;20028;-71
2021/11/23 10:29:01;;;;;;;5.47;1.50;;;19.70;99.90;;;;;;5056405;28;20079;-69
2021/11/23 10:31:34;;;;;;;6.23;2.70;;;19.70;99.90;;;;;;4715155;28;10000305;-69
2021/11/23 10:34:04;;;;;;;6.57;2.35;;;19.70;99.90;;;;;;5063068;28;20109;-70
2021/11/23 10:36:34;;;;;;;4.28;1.98;;;19.60;99.90;;;;;;5058445;28;20029;-74
2021/11/23 10:39:13;;;;;;;8.75;2.10;;;19.60;99.90;;;;;;5059668;28;20080;-72
2021/11/23 10:41:43;;;;;;;4.45;1.73;;;19.50;99.90;;;;;;5066366;28;20059;-68
2021/11/23 10:44:17;;;;;;;3.33;1.40;;;19.50;99.90;;;;;;5059234;28;20061;-73
2021/11/23 10:47:11;;;;;;;6.32;2.33;;;19.50;99.90;;;;;;5057471;28;20033;-69
2021/11/23 10:49:46;;;;;;;4.40;1.45;;;19.50;99.90;;;;;;5064600;28;20020;-72
2021/11/23 10:52:36;;;;;;;5.80;1.67;;;19.50;99.90;;;;;;5059318;28;20032;-70
2021/11/23 10:55:33;;;;;;;4.57;1.92;;;19.50;99.90;;;;;;5054499;28;20028;-69
2021/11/23 10:58:06;;;;;;;4.30;1.38;;;19.40;99.90;;;;;;5058796;28;20028;-69
2021/11/23 11:00:36;;;;;;;4.03;1.30;;;19.40;99.90;;;;;;5066324;28;20021;-69
2021/11/23 11:03:04;;;;;;;6.38;1.52;;;19.40;99.90;;;;;;5069979;28;20024;-69
2021/11/23 11:05:34;;;;;;;4.40;2.00;;;19.30;99.90;;;;;;5060479;28;20104;-69
2021/11/23 11:08:01;;;;;;;6.28;1.80;;;19.40;99.90;;;;;;5065739;28;20021;-68
2021/11/23 11:10:30;;;;;;;3.90;1.38;;;19.40;99.90;;;;;;5067050;28;20017;-69
2021/11/23 11:12:59;;;;;;;5.88;1.38;;;19.40;99.90;;;;;;5074254;28;20056;-68
2021/11/23 11:15:42;;;;;;;6.10;1.77;;;19.30;99.90;;;;;;5064497;28;20042;-69
2021/11/23 11:18:16;;;;;;;7.70;2.03;;;19.20;99.90;;;;;;5066988;28;20090;-69
2021/11/23 11:20:50;;;;;;;3.20;1.50;;;19.10;99.90;;;;;;5072711;28;20040;-68
2021/11/23 11:23:33;;;;;;;13.60;9.93;;;19.10;99.90;;;;;;5064870;28;20040;-69
2021/11/23 11:28:57;;;;;;;6.00;1.70;;;19.00;99.90;;;;;;5047582;28;20044;-69
2021/11/23 11:31:47;;;;;;;3.00;1.60;;;18.90;99.90;;;;;;5051364;28;20375;-69
2021/11/23 11:34:27;;;;;;;5.47;1.60;;;18.80;99.90;;;;;;5045992;28;20020;-69
2021/11/23 11:37:18;;;;;;;3.67;1.35;;;18.80;99.90;;;;;;5048345;28;20025;-68
2021/11/23 11:40:03;;;;;;;4.18;1.27;;;18.80;99.90;;;;;;5046117;28;20458;-68
2021/11/23 11:42:30;;;;;;;5.00;1.50;;;18.80;99.90;;;;;;5047301;28;20029;-69
2021/11/23 11:44:58;;;;;;;5.10;1.50;;;18.70;99.90;;;;;;5049211;28;20029;-68
2021/11/23 11:47:33;;;;;;;3.72;1.50;;;18.70;99.90;;;;;;5048836;28;20120;-68
2021/11/23 11:50:05;;;;;;;4.10;1.33;;;18.60;99.90;;;;;;5049033;28;20024;-68
2021/11/23 11:53:00;;;;;;;3.55;1.23;;;18.50;99.90;;;;;;5049338;28;20029;-68
2021/11/23 11:55:29;;;;;;;5.00;3.33;;;18.40;99.90;;;;;;5039739;28;20032;-68
2021/11/23 11:58:00;;;;;;;4.10;1.60;;;18.40;99.90;;;;;;5049985;28;20210;-69
2021/11/23 12:00:34;;;;;;;6.68;1.77;;;18.40;99.90;;;;;;5046108;28;20020;-69
2021/11/23 12:03:24;;;;;;;6.88;1.63;;;18.40;99.90;;;;;;5049563;28;20029;-68
2021/11/23 12:05:57;;;;;;;7.47;1.80;;;18.40;99.90;;;;;;5036099;28;20094;-68
2021/11/23 12:08:30;;;;;;;3.83;1.40;;;18.40;99.90;;;;;;5046688;28;20086;-69
2021/11/23 12:10:58;;;;;;;4.47;1.35;;;18.40;99.90;;;;;;5048710;28;20037;-69
2021/11/23 12:13:45;;;;;;;4.32;1.52;;;18.40;99.90;;;;;;5047466;28;20782;-69
2021/11/23 12:16:24;;;;;;;4.60;2.05;;;18.40;99.90;;;;;;5048418;28;20029;-69
2021/11/23 12:19:10;;;;;;;2.88;1.58;;;18.50;99.90;;;;;;5046512;28;20040;-69
2021/11/23 12:21:54;;;;;;;2.33;1.20;;;18.50;99.90;;;;;;5047683;28;20120;-69
2021/11/23 12:24:30;;;;;;;2.92;1.38;;;18.50;99.90;;;;;;5048836;28;20472;-69
2021/11/23 12:27:06;;;;;;;6.10;1.80;;;18.50;99.90;;;;;;5054451;28;20044;-69
2021/11/23 12:29:33;;;;;;;4.32;1.35;;;18.50;99.90;;;;;;5066544;28;20028;-69
2021/11/23 12:32:01;;;;;;;4.40;1.45;;;18.50;99.90;;;;;;5068690;28;20025;-69
2021/11/23 12:34:28;;;;;;;2.90;1.15;;;18.50;99.90;;;;;;5067928;28;20073;-69
2021/11/23 12:36:58;;;;;;;5.78;1.85;;;18.50;99.90;;;;;;5066648;28;20074;-69
2021/11/23 12:39:48;;;;;;;2.78;1.23;;;18.50;99.90;;;;;;5062559;28;20425;-69
2021/11/23 12:42:16;;;;;;;12.52;6.95;;;18.50;99.90;;;;;;5063873;28;20028;-69
2021/11/23 12:44:47;;;;;;;6.38;3.60;;;18.50;99.90;;;;;;5067297;28;20024;-69
2021/11/23 12:47:18;;;;;;;3.63;1.80;;;18.50;99.90;;;;;;5066039;28;20391;-69
2021/11/23 12:49:59;;;;;;;5.22;1.73;;;18.50;99.90;;;;;;5067165;28;20036;-68
2021/11/23 12:52:28;;;;;;;3.90;1.70;;;18.60;99.90;;;;;;5065592;28;20036;-68
2021/11/23 12:54:56;;;;;;;2.65;1.45;;;18.60;99.90;;;;;;5067827;28;20424;-68
2021/11/23 12:57:25;;;;;;;3.55;1.60;;;18.60;99.90;;;;;;5067795;28;20021;-69
2021/11/23 12:59:58;;;;;;;4.82;1.67;;;18.60;99.90;;;;;;5065642;28;20037;-68
2021/11/23 13:02:35;;;;;;;6.13;1.55;;;18.60;99.90;;;;;;5065341;28;20040;-69